createdAt,value
2023-04-10T00:01:10.722Z,99.90
2023-04-10T00:03:38.011Z,99.90
2023-04-10T00:06:05.744Z,99.90
2023-04-10T00:08:32.951Z,99.90
2023-04-10T00:11:00.003Z,99.90
2023-04-10T00:13:27.105Z,99.90
2023-04-10T00:15:54.182Z,99.90
2023-04-10T00:18:21.362Z,99.90
2023-04-10T00:20:48.516Z,99.90
2023-04-10T00:23:15.569Z,99.90
2023-04-10T00:25:42.627Z,99.90
2023-04-10T00:28:09.694Z,99.90
2023-04-10T00:30:36.785Z,99.90
2023-04-10T00:33:04.073Z,99.90
2023-04-10T00:35:31.687Z,99.90
2023-04-10T00:37:59.091Z,99.90
2023-04-10T00:40:26.530Z,99.90
2023-04-10T00:42:53.757Z,99.90
2023-04-10T00:45:21.934Z,99.90
2023-04-10T00:47:49.221Z,99.90
2023-04-10T00:50:16.524Z,99.90
2023-04-10T00:52:43.812Z,99.90
2023-04-10T00:55:11.589Z,99.90
2023-04-10T00:57:39.112Z,99.90
2023-04-10T01:00:06.781Z,99.90
2023-04-10T01:02:34.126Z,99.90
2023-04-10T01:05:02.274Z,99.90
2023-04-10T01:07:42.761Z,99.90
2023-04-10T01:10:28.593Z,99.90
2023-04-10T01:13:06.471Z,99.90
2023-04-10T01:15:40.134Z,99.90
2023-04-10T01:18:45.864Z,99.90
2023-04-10T01:21:14.785Z,99.90
2023-04-10T01:24:00.797Z,99.90
2023-04-10T01:26:46.693Z,99.90
2023-04-10T01:29:19.630Z,99.90
2023-04-10T01:32:07.011Z,99.90
2023-04-10T01:34:40.543Z,99.90
2023-04-10T01:37:12.133Z,99.90
2023-04-10T01:39:39.988Z,99.90
2023-04-10T01:42:07.703Z,99.90
2023-04-10T01:44:40.998Z,99.90
2023-04-10T01:47:08.282Z,99.90
2023-04-10T01:49:42.458Z,99.90
2023-04-10T01:52:10.655Z,99.90
2023-04-10T01:54:38.709Z,99.90
2023-04-10T01:57:06.716Z,99.90
2023-04-10T01:59:41.469Z,99.90
2023-04-10T02:02:11.708Z,99.90
2023-04-10T02:04:39.423Z,99.90
2023-04-10T02:07:29.977Z,99.90
2023-04-10T02:10:04.615Z,99.90
2023-04-10T02:12:38.912Z,99.90
2023-04-10T02:15:08.516Z,99.90
2023-04-10T02:17:36.604Z,99.90
2023-04-10T02:20:04.564Z,99.90
2023-04-10T02:22:31.955Z,99.90
2023-04-10T02:24:59.445Z,99.90
2023-04-10T02:27:34.783Z,99.90
2023-04-10T02:30:04.830Z,99.90
2023-04-10T02:32:34.499Z,99.90
2023-04-10T02:35:04.581Z,99.90
2023-04-10T02:37:32.810Z,99.90
2023-04-10T02:40:01.687Z,99.90
2023-04-10T02:42:36.464Z,99.90
2023-04-10T02:45:03.970Z,99.90
2023-04-10T02:47:36.925Z,99.90
2023-04-10T02:50:04.225Z,99.90
2023-04-10T02:52:35.672Z,99.90
2023-04-10T02:55:02.731Z,99.90
2023-04-10T02:57:34.994Z,99.90
2023-04-10T03:00:04.666Z,99.90
2023-04-10T03:02:49.997Z,99.90
2023-04-10T03:05:19.634Z,99.90
2023-04-10T03:07:46.992Z,99.90
2023-04-10T03:10:14.259Z,99.90
2023-04-10T03:12:41.849Z,99.90
2023-04-10T03:15:09.092Z,99.90
2023-04-10T03:17:36.252Z,99.90
2023-04-10T03:20:03.581Z,99.90
2023-04-10T03:22:33.160Z,99.90
2023-04-10T03:25:01.299Z,99.90
2023-04-10T03:27:32.168Z,99.90
2023-04-10T03:29:59.524Z,99.90
2023-04-10T03:32:28.220Z,99.90
2023-04-10T03:34:55.327Z,99.90
2023-04-10T03:37:22.448Z,99.90
2023-04-10T03:39:49.733Z,99.90
2023-04-10T03:42:16.825Z,99.90
2023-04-10T03:44:44.250Z,99.90
2023-04-10T03:47:11.472Z,99.90
2023-04-10T03:49:38.617Z,99.90
2023-04-10T03:52:07.106Z,99.90
2023-04-10T03:54:34.273Z,99.90
2023-04-10T03:57:04.160Z,99.90
2023-04-10T03:59:38.153Z,99.90
2023-04-10T04:02:09.124Z,99.90
2023-04-10T04:04:36.737Z,99.90
2023-04-10T04:07:26.522Z,99.90
2023-04-10T04:10:06.400Z,99.90
2023-04-10T04:12:56.137Z,99.90
2023-04-10T04:15:36.376Z,99.90
2023-04-10T04:18:17.304Z,99.90
2023-04-10T04:20:55.655Z,99.90
2023-04-10T04:23:58.089Z,99.90
2023-04-10T04:26:31.889Z,99.90
2023-04-10T04:29:15.058Z,99.90
2023-04-10T04:31:48.321Z,99.90
2023-04-10T04:34:37.861Z,99.90
2023-04-10T04:37:15.092Z,99.90
2023-04-10T04:40:01.155Z,99.90
2023-04-10T04:42:46.991Z,99.90
2023-04-10T04:45:42.940Z,99.90
2023-04-10T04:48:28.533Z,99.90
2023-04-10T04:51:14.003Z,99.90
2023-04-10T04:53:56.548Z,99.90
2023-04-10T04:56:48.107Z,99.90
2023-04-10T04:59:33.864Z,99.90
2023-04-10T05:02:23.062Z,99.90
2023-04-10T05:05:10.627Z,99.90
2023-04-10T05:08:00.635Z,99.90
2023-04-10T05:10:40.365Z,99.90
2023-04-10T05:13:17.421Z,99.90
2023-04-10T05:16:03.152Z,99.90
2023-04-10T05:18:55.056Z,99.90
2023-04-10T05:21:45.249Z,99.90
2023-04-10T05:24:34.516Z,99.90
2023-04-10T05:27:23.069Z,99.90
2023-04-10T05:29:58.880Z,99.90
2023-04-10T05:32:46.055Z,99.90
2023-04-10T05:35:42.606Z,99.90
2023-04-10T05:38:32.640Z,99.90
2023-04-10T05:41:14.576Z,99.90
2023-04-10T05:43:58.643Z,99.90
2023-04-10T05:46:54.711Z,99.90
2023-04-10T05:49:21.812Z,99.90
2023-04-10T05:52:08.979Z,99.90
2023-04-10T05:54:54.508Z,99.90
2023-04-10T05:57:39.958Z,99.90
2023-04-10T06:00:21.978Z,99.90
2023-04-10T06:03:27.875Z,99.90
2023-04-10T06:06:00.107Z,99.90
2023-04-10T06:08:27.351Z,99.90
2023-04-10T06:10:54.472Z,99.90
2023-04-10T06:13:21.611Z,99.90
2023-04-10T06:15:51.799Z,99.90
2023-04-10T06:18:19.353Z,99.90
2023-04-10T06:20:48.555Z,99.90
2023-04-10T06:23:15.925Z,99.90
2023-04-10T06:25:43.702Z,99.90
2023-04-10T06:28:10.877Z,99.90
2023-04-10T06:30:38.589Z,99.90
2023-04-10T06:33:07.622Z,99.90
2023-04-10T06:35:37.623Z,99.90
2023-04-10T06:38:05.104Z,99.90
2023-04-10T06:40:35.011Z,99.90
2023-04-10T06:43:02.101Z,99.90
2023-04-10T06:45:35.378Z,99.90
2023-04-10T06:48:02.502Z,99.90
2023-04-10T06:50:30.628Z,99.90
2023-04-10T06:53:00.042Z,99.90
2023-04-10T06:55:27.359Z,99.90
2023-04-10T06:57:56.124Z,99.90
2023-04-10T07:00:23.573Z,99.90
2023-04-10T07:02:50.818Z,99.90
2023-04-10T07:05:18.059Z,99.90
2023-04-10T07:07:45.357Z,99.90
2023-04-10T07:10:13.386Z,99.90
2023-04-10T07:12:40.692Z,99.90
2023-04-10T07:15:08.293Z,99.10
2023-04-10T07:17:35.477Z,97.40
2023-04-10T07:20:03.045Z,96.80
2023-04-10T07:22:30.995Z,94.90
2023-04-10T07:24:59.018Z,94.40
2023-04-10T07:27:26.560Z,92.60
2023-04-10T07:29:55.024Z,91.70
2023-04-10T07:32:22.596Z,91.00
2023-04-10T07:34:49.921Z,90.50
2023-04-10T07:37:18.079Z,90.10
2023-04-10T07:39:45.289Z,89.40
2023-04-10T07:42:12.412Z,88.00
2023-04-10T07:44:39.594Z,88.00
2023-04-10T07:47:06.663Z,85.20
2023-04-10T07:49:33.861Z,84.70
2023-04-10T07:52:01.027Z,84.10
2023-04-10T07:54:28.177Z,83.50
2023-04-10T07:56:55.275Z,82.70
2023-04-10T07:59:22.348Z,82.80
2023-04-10T08:01:49.447Z,82.50
2023-04-10T08:04:16.782Z,84.80
2023-04-10T08:06:44.017Z,84.80
2023-04-10T08:09:11.069Z,85.60
2023-04-10T08:11:38.729Z,85.40
2023-04-10T08:14:07.043Z,85.80
2023-04-10T08:16:35.972Z,86.60
2023-04-10T08:19:03.293Z,87.50
2023-04-10T08:21:31.905Z,85.10
2023-04-10T08:24:00.408Z,81.40
2023-04-10T08:26:28.171Z,81.10
2023-04-10T08:28:57.175Z,79.70
2023-04-10T08:31:24.943Z,81.40
2023-04-10T08:33:52.228Z,79.90
2023-04-10T08:36:20.340Z,79.00
2023-04-10T08:38:48.025Z,78.50
2023-04-10T08:41:16.113Z,77.10
2023-04-10T08:43:45.524Z,77.10
2023-04-10T08:46:13.176Z,77.20
2023-04-10T08:48:47.801Z,74.70
2023-04-10T08:51:20.343Z,71.20
2023-04-10T08:53:50.480Z,68.30
2023-04-10T08:56:18.196Z,64.10
2023-04-10T08:58:45.931Z,61.20
2023-04-10T09:01:13.610Z,60.30
2023-04-10T09:03:41.003Z,59.80
2023-04-10T09:06:08.732Z,59.90
2023-04-10T09:08:35.954Z,59.40
2023-04-10T09:11:03.141Z,59.00
2023-04-10T09:13:38.100Z,58.90
2023-04-10T09:16:05.511Z,58.40
2023-04-10T09:18:42.175Z,57.80
2023-04-10T09:21:13.349Z,58.40
2023-04-10T09:23:41.483Z,57.70
2023-04-10T09:26:28.378Z,59.10
2023-04-10T09:28:59.555Z,58.00
2023-04-10T09:31:30.990Z,57.00
2023-04-10T09:34:13.597Z,56.90
2023-04-10T09:36:44.239Z,56.80
2023-04-10T09:39:12.385Z,57.10
2023-04-10T09:41:48.987Z,57.60
2023-04-10T09:44:16.853Z,58.70
2023-04-10T09:46:43.920Z,59.10
2023-04-10T09:49:11.219Z,61.10
2023-04-10T09:51:39.322Z,61.90
2023-04-10T09:54:06.832Z,62.00
2023-04-10T09:56:36.908Z,63.00
2023-04-10T09:59:04.784Z,63.60
2023-04-10T10:01:34.702Z,62.20
2023-04-10T10:04:03.374Z,62.80
2023-04-10T10:06:32.060Z,62.80
2023-04-10T10:09:04.453Z,65.00
2023-04-10T10:11:38.068Z,63.50
2023-04-10T10:14:12.998Z,64.10
2023-04-10T10:16:43.878Z,63.20
2023-04-10T10:19:10.926Z,61.60
2023-04-10T10:21:38.475Z,63.50
2023-04-10T10:24:07.996Z,62.80
2023-04-10T10:26:35.755Z,61.70
2023-04-10T10:29:10.562Z,60.70
2023-04-10T10:31:38.203Z,59.50
2023-04-10T10:34:07.529Z,60.00
2023-04-10T10:36:35.666Z,58.00
2023-04-10T10:39:16.774Z,56.60
2023-04-10T10:41:49.612Z,55.50
2023-04-10T10:44:35.642Z,53.90
2023-04-10T10:47:19.782Z,52.70
2023-04-10T10:49:53.495Z,51.30
2023-04-10T10:52:39.229Z,52.50
2023-04-10T10:55:24.743Z,52.30
2023-04-10T10:58:01.318Z,52.70
2023-04-10T11:00:47.217Z,54.20
2023-04-10T11:03:14.426Z,56.50
2023-04-10T11:05:58.670Z,57.80
2023-04-10T11:08:47.616Z,58.20
2023-04-10T11:11:27.398Z,59.10
2023-04-10T11:13:57.396Z,58.90
2023-04-10T11:16:41.938Z,58.80
2023-04-10T11:19:15.007Z,58.50
2023-04-10T11:22:00.353Z,58.50
2023-04-10T11:24:27.766Z,58.60
2023-04-10T11:26:56.218Z,56.90
2023-04-10T11:29:29.342Z,57.40
2023-04-10T11:31:57.590Z,57.60
2023-04-10T11:34:24.884Z,57.30
2023-04-10T11:36:53.332Z,57.10
2023-04-10T11:39:21.628Z,56.70
2023-04-10T11:41:49.704Z,56.70
2023-04-10T11:44:20.908Z,57.30
2023-04-10T11:46:48.096Z,58.00
2023-04-10T11:49:19.538Z,57.20
2023-04-10T11:51:49.881Z,57.60
2023-04-10T11:54:18.377Z,56.90
2023-04-10T11:56:47.202Z,57.20
2023-04-10T11:59:19.725Z,56.50
2023-04-10T12:01:47.338Z,56.70
2023-04-10T12:04:16.284Z,57.00
2023-04-10T12:06:44.300Z,55.70
2023-04-10T12:09:15.769Z,56.20
2023-04-10T12:11:53.232Z,55.80
2023-04-10T12:14:21.632Z,56.30
2023-04-10T12:16:49.630Z,56.40
2023-04-10T12:19:18.013Z,56.20
2023-04-10T12:21:45.747Z,56.10
2023-04-10T12:24:12.960Z,56.00
2023-04-10T12:26:47.139Z,55.20
2023-04-10T12:29:14.257Z,55.60
2023-04-10T12:31:41.481Z,55.10
2023-04-10T12:34:11.294Z,55.40
2023-04-10T12:36:38.584Z,55.80
2023-04-10T12:39:21.429Z,55.90
2023-04-10T12:41:48.504Z,56.20
2023-04-10T12:44:16.180Z,55.50
2023-04-10T12:46:44.397Z,55.50
2023-04-10T12:49:20.823Z,56.60
2023-04-10T12:51:51.671Z,57.10
2023-04-10T12:54:29.282Z,56.00
2023-04-10T12:56:57.716Z,56.40
2023-04-10T12:59:26.502Z,56.50
2023-04-10T13:01:54.224Z,57.30
2023-04-10T13:04:22.148Z,58.00
2023-04-10T13:06:52.740Z,58.10
2023-04-10T13:09:20.175Z,58.30
2023-04-10T13:11:48.144Z,57.60
2023-04-10T13:14:17.050Z,57.70
2023-04-10T13:16:44.370Z,57.40
2023-04-10T13:19:12.898Z,57.80
2023-04-10T13:21:40.060Z,57.30
2023-04-10T13:24:07.191Z,56.00
2023-04-10T13:26:34.283Z,56.20
2023-04-10T13:29:01.318Z,55.30
2023-04-10T13:31:28.448Z,55.50
2023-04-10T13:33:55.759Z,55.30
2023-04-10T13:36:23.009Z,54.90
2023-04-10T13:38:50.786Z,54.80
2023-04-10T13:41:18.095Z,55.00
2023-04-10T13:43:45.193Z,55.50
2023-04-10T13:46:12.245Z,55.50
2023-04-10T13:48:41.356Z,55.50
2023-04-10T13:51:08.715Z,55.70
2023-04-10T13:53:35.857Z,56.20
2023-04-10T13:56:02.979Z,55.50
2023-04-10T13:58:32.158Z,55.20
2023-04-10T14:00:59.645Z,55.10
2023-04-10T14:03:27.102Z,55.30
2023-04-10T14:05:54.404Z,54.80
2023-04-10T14:08:21.495Z,54.70
2023-04-10T14:10:50.805Z,55.10
2023-04-10T14:13:18.212Z,54.20
2023-04-10T14:15:45.317Z,55.10
2023-04-10T14:18:12.436Z,55.40
2023-04-10T14:20:42.330Z,55.20
2023-04-10T14:23:09.747Z,55.60
2023-04-10T14:25:36.795Z,55.60
2023-04-10T14:28:03.873Z,56.00
2023-04-10T14:30:32.686Z,56.10
2023-04-10T14:32:59.969Z,55.90
2023-04-10T14:35:27.090Z,55.70
2023-04-10T14:37:55.566Z,56.50
2023-04-10T14:40:22.683Z,57.60
2023-04-10T14:42:49.771Z,56.90
2023-04-10T14:45:18.047Z,57.10
2023-04-10T14:47:45.474Z,57.20
2023-04-10T14:50:12.971Z,58.30
2023-04-10T14:52:40.089Z,57.50
2023-04-10T14:55:07.281Z,57.60
2023-04-10T14:57:34.533Z,57.70
2023-04-10T15:00:01.903Z,58.20
2023-04-10T15:02:30.498Z,58.80
2023-04-10T15:04:57.802Z,57.60
2023-04-10T15:07:24.972Z,58.00
2023-04-10T15:09:56.095Z,59.30
2023-04-10T15:12:24.818Z,59.40
2023-04-10T15:14:52.182Z,58.90
2023-04-10T15:17:23.205Z,58.90
2023-04-10T15:19:50.450Z,59.20
2023-04-10T15:22:17.553Z,59.20
2023-04-10T15:24:50.406Z,59.20
2023-04-10T15:27:21.591Z,58.60
2023-04-10T15:29:48.912Z,59.00
2023-04-10T15:32:16.067Z,59.10
2023-04-10T15:34:43.827Z,59.00
2023-04-10T15:37:11.758Z,59.70
2023-04-10T15:39:38.974Z,59.90
2023-04-10T15:42:08.314Z,59.10
2023-04-10T15:44:35.504Z,60.10
2023-04-10T15:47:02.544Z,60.30
2023-04-10T15:49:37.671Z,59.90
2023-04-10T15:52:06.518Z,60.00
2023-04-10T15:54:34.042Z,59.30
2023-04-10T15:57:02.080Z,59.80
2023-04-10T15:59:29.505Z,59.40
2023-04-10T16:01:56.866Z,59.60
2023-04-10T16:04:24.211Z,59.80
2023-04-10T16:06:51.403Z,60.00
2023-04-10T16:11:49.749Z,60.00
2023-04-10T16:14:18.821Z,59.80
2023-04-10T16:16:46.243Z,59.70
2023-04-10T16:19:13.362Z,60.50
2023-04-10T16:21:40.561Z,61.40
2023-04-10T16:24:07.758Z,61.10
2023-04-10T16:26:34.932Z,61.50
2023-04-10T16:29:02.013Z,61.10
2023-04-10T16:31:29.115Z,61.40
2023-04-10T16:33:56.586Z,62.40
2023-04-10T16:36:23.720Z,62.10
2023-04-10T16:38:50.922Z,61.80
2023-04-10T16:41:18.531Z,61.90
2023-04-10T16:43:45.837Z,62.90
2023-04-10T16:46:12.951Z,63.00
2023-04-10T16:48:40.223Z,62.80
2023-04-10T16:51:08.813Z,62.80
2023-04-10T16:53:36.197Z,63.10
2023-04-10T16:56:05.194Z,63.30
2023-04-10T16:58:33.402Z,63.10
2023-04-10T17:01:00.962Z,64.10
2023-04-10T17:03:28.159Z,64.00
2023-04-10T17:05:55.464Z,64.40
2023-04-10T17:08:22.611Z,64.10
2023-04-10T17:10:49.700Z,64.00
2023-04-10T17:13:18.229Z,63.90
2023-04-10T17:15:46.315Z,64.20
2023-04-10T17:18:13.486Z,64.90
2023-04-10T17:20:40.613Z,64.80
2023-04-10T17:23:07.712Z,64.70
2023-04-10T17:25:38.731Z,64.90
2023-04-10T17:28:06.002Z,64.50
2023-04-10T17:30:33.204Z,65.70
2023-04-10T17:33:00.528Z,65.40
2023-04-10T17:35:27.592Z,65.40
2023-04-10T17:37:54.764Z,66.00
2023-04-10T17:40:21.983Z,66.20
2023-04-10T17:42:49.071Z,66.80
2023-04-10T17:45:16.368Z,66.80
2023-04-10T17:47:44.801Z,67.20
2023-04-10T17:50:12.040Z,66.90
2023-04-10T17:52:39.223Z,67.50
2023-04-10T17:55:06.658Z,67.80
2023-04-10T17:57:33.793Z,68.00
2023-04-10T18:00:00.953Z,68.10
2023-04-10T18:02:28.072Z,68.50
2023-04-10T18:04:55.947Z,68.90
2023-04-10T18:07:23.007Z,69.00
2023-04-10T18:09:50.468Z,69.50
2023-04-10T18:12:17.605Z,69.70
2023-04-10T18:14:45.538Z,70.00
2023-04-10T18:17:12.661Z,69.90
2023-04-10T18:19:39.775Z,70.10
2023-04-10T18:22:06.845Z,70.10
2023-04-10T18:24:33.898Z,70.50
2023-04-10T18:27:01.002Z,70.80
2023-04-10T18:29:30.056Z,70.60
2023-04-10T18:31:57.132Z,71.30
2023-04-10T18:34:24.184Z,71.10
2023-04-10T18:36:51.306Z,71.60
2023-04-10T18:39:19.034Z,71.40
2023-04-10T18:41:46.087Z,71.50
2023-04-10T18:44:13.186Z,71.70
2023-04-10T18:46:42.729Z,71.90
2023-04-10T18:49:11.448Z,72.70
2023-04-10T18:51:40.392Z,72.60
2023-04-10T18:54:08.001Z,72.80
2023-04-10T18:56:35.733Z,72.90
2023-04-10T18:59:04.415Z,73.00
2023-04-10T19:01:31.569Z,73.00
2023-04-10T19:03:59.020Z,73.30
2023-04-10T19:06:27.834Z,73.20
2023-04-10T19:08:55.942Z,73.30
2023-04-10T19:11:23.135Z,73.20
2023-04-10T19:13:50.393Z,72.60
2023-04-10T19:16:19.609Z,72.40
2023-04-10T19:18:49.587Z,72.20
2023-04-10T19:21:16.665Z,72.50
2023-04-10T19:23:43.808Z,73.00
2023-04-10T19:26:11.004Z,72.70
2023-04-10T19:28:38.203Z,72.80
2023-04-10T19:31:05.508Z,73.20
2023-04-10T19:33:32.635Z,74.00
2023-04-10T19:35:59.808Z,73.40
2023-04-10T19:38:29.144Z,74.20
2023-04-10T19:40:56.392Z,74.10
2023-04-10T19:43:23.524Z,73.80
2023-04-10T19:45:52.898Z,73.80
2023-04-10T19:48:20.058Z,75.10
2023-04-10T19:50:47.215Z,76.00
2023-04-10T19:53:15.603Z,76.00
2023-04-10T19:55:44.147Z,76.60
2023-04-10T19:58:30.043Z,77.20
2023-04-10T20:01:02.644Z,77.10
2023-04-10T20:03:30.048Z,77.30
2023-04-10T20:05:58.595Z,77.40
2023-04-10T20:08:25.844Z,77.40
2023-04-10T20:10:53.069Z,77.60
2023-04-10T20:13:20.545Z,77.70
2023-04-10T20:15:48.178Z,78.20
2023-04-10T20:18:16.289Z,78.60
2023-04-10T20:20:44.048Z,79.30
2023-04-10T20:23:11.879Z,79.80
2023-04-10T20:25:39.243Z,79.90
2023-04-10T20:28:06.526Z,80.30
2023-04-10T20:30:34.971Z,80.20
2023-04-10T20:33:02.040Z,81.00
2023-04-10T20:35:29.104Z,81.30
2023-04-10T20:37:56.199Z,81.30
2023-04-10T20:40:23.305Z,81.90
2023-04-10T20:42:50.529Z,83.50
2023-04-10T20:45:17.641Z,82.80
2023-04-10T20:47:44.733Z,83.20
2023-04-10T20:50:12.990Z,83.00
2023-04-10T20:52:40.456Z,83.70
2023-04-10T20:55:07.760Z,83.10
2023-04-10T20:57:34.831Z,83.40
2023-04-10T21:00:01.956Z,83.40
2023-04-10T21:02:29.274Z,83.80
2023-04-10T21:04:56.721Z,84.20
2023-04-10T21:07:23.769Z,84.20
2023-04-10T21:09:50.874Z,84.40
2023-04-10T21:12:17.933Z,84.20
2023-04-10T21:14:45.824Z,84.40
2023-04-10T21:17:12.957Z,84.80
2023-04-10T21:19:40.103Z,85.30
2023-04-10T21:22:07.166Z,85.70
2023-04-10T21:24:34.228Z,86.00
2023-04-10T21:27:01.377Z,86.60
2023-04-10T21:29:29.033Z,86.90
2023-04-10T21:31:56.466Z,87.20
2023-04-10T21:34:23.576Z,87.80
2023-04-10T21:36:50.725Z,88.40
2023-04-10T21:39:17.860Z,88.90
2023-04-10T21:41:45.394Z,89.50
2023-04-10T21:44:12.469Z,89.90
2023-04-10T21:46:39.597Z,90.20
2023-04-10T21:49:07.147Z,90.40
2023-04-10T21:51:34.267Z,90.60
2023-04-10T21:54:01.375Z,90.70
2023-04-10T21:56:28.479Z,90.70
2023-04-10T21:58:55.973Z,90.80
2023-04-10T22:01:23.345Z,90.70
2023-04-10T22:03:50.930Z,90.80
2023-04-10T22:06:18.120Z,91.00
2023-04-10T22:08:45.294Z,91.00
2023-04-10T22:11:12.579Z,91.10
2023-04-10T22:13:39.656Z,91.30
2023-04-10T22:16:06.951Z,91.50
2023-04-10T22:18:34.069Z,91.70
2023-04-10T22:21:01.168Z,92.20
2023-04-10T22:23:28.230Z,92.10
2023-04-10T22:25:55.369Z,92.40
2023-04-10T22:28:22.498Z,92.60
2023-04-10T22:30:49.640Z,92.90
2023-04-10T22:33:16.833Z,93.10
2023-04-10T22:35:43.958Z,93.40
2023-04-10T22:38:11.073Z,93.70
2023-04-10T22:40:38.220Z,93.70
2023-04-10T22:43:05.306Z,93.90
2023-04-10T22:45:32.353Z,93.80
2023-04-10T22:47:59.471Z,93.70
2023-04-10T22:50:26.563Z,93.80
2023-04-10T22:52:53.710Z,93.80
2023-04-10T22:55:20.827Z,93.90
2023-04-10T22:57:48.750Z,94.00
2023-04-10T23:00:16.125Z,94.10
2023-04-10T23:02:43.419Z,94.20
2023-04-10T23:05:10.577Z,94.20
2023-04-10T23:07:37.800Z,94.50
2023-04-10T23:10:07.182Z,94.20
2023-04-10T23:12:34.257Z,94.10
2023-04-10T23:15:01.559Z,94.50
2023-04-10T23:17:28.771Z,94.40
2023-04-10T23:19:56.064Z,94.20
2023-04-10T23:22:23.195Z,94.50
2023-04-10T23:24:53.750Z,94.40
2023-04-10T23:27:20.851Z,94.40
2023-04-10T23:29:48.220Z,94.60
2023-04-10T23:32:15.860Z,95.00
2023-04-10T23:34:43.112Z,95.00
2023-04-10T23:37:10.257Z,95.30
2023-04-10T23:39:37.350Z,95.40
2023-04-10T23:42:04.510Z,95.70
2023-04-10T23:44:31.596Z,95.70
2023-04-10T23:46:58.785Z,95.80
2023-04-10T23:49:26.019Z,96.40
2023-04-10T23:51:53.159Z,96.40
2023-04-10T23:54:20.240Z,96.50
2023-04-10T23:56:47.405Z,96.80
2023-04-10T23:59:16.954Z,96.90
